Winnsboro, Texas
Current Conditions -  °F | °C
As of 9:35 PM on Sunday 21 Dec 2014 (Local Time) from KJDD Reporting Station
Overcast Overcast  
Wind Chill: 52°   Ceiling: 1500
Heat Index: 52°   Visibility: 10mi
Dew Point: 46°   Wind: 6mph
Humidity: 82%   Direction: 180°S
Pressure: 29.85"   Gusts: NA
Location:  32.96°N, 95.29°W
Report Text: KJDD 220335Z AUTO 18005KT 10SM BKN015 OVC026 11/08 A2985 RMK AO2
Loading
Personal Weather Stations






























Interactive Weather Map New forecast layout! Learn more

10-Day Weather Forecast

Advertisements
Track Severe Weather on mobile